Time;durP1;ratioP1;P1;durP2;ratioP2;P2;SDS_P1;SDS_P2;PMS_P1;PMS_P2;Temp;Humidity;BMP_temperature;BMP_pressure;BME280_temperature;BME280_humidity;BME280_pressure;Samples;Min_cycle;Max_cycle;Signal;HPM_P1;HPM_P2
2023/11/13 00:02:25;;;;;;;10.05;5.28;;;6.40;99.90;;;6.89;69.44;99785.69;5099780;28;20048;-81
2023/11/13 00:04:53;;;;;;;9.23;6.05;;;6.40;99.90;;;6.87;69.08;99782.44;5099159;28;20498;-81
2023/11/13 00:07:21;;;;;;;11.85;5.78;;;6.40;99.90;;;6.86;69.19;99783.44;5099318;28;20506;-81
2023/11/13 00:09:49;;;;;;;12.98;5.70;;;6.30;99.90;;;6.82;69.13;99772.44;5099692;28;20064;-81
2023/11/13 00:12:18;;;;;;;10.05;5.57;;;6.30;99.90;;;6.81;69.13;99777.94;5100173;28;20449;-81
2023/11/13 00:14:46;;;;;;;13.02;6.05;;;6.30;99.90;;;6.78;68.97;99781.81;5100437;28;20044;-81
2023/11/13 00:17:13;;;;;;;14.93;6.05;;;6.20;99.90;;;6.74;69.40;99785.09;5099595;28;20427;-81
2023/11/13 00:19:40;;;;;;;14.63;5.78;;;6.20;99.90;;;6.72;69.23;99782.63;5099810;28;20044;-81
2023/11/13 00:22:08;;;;;;;14.05;6.22;;;6.20;99.90;;;6.71;69.12;99794.25;5101439;28;20097;-81
2023/11/13 00:24:35;;;;;;;14.60;5.57;;;6.20;99.90;;;6.71;68.87;99800.34;5101792;28;20071;-81
2023/11/13 00:27:04;;;;;;;9.85;5.18;;;6.20;99.90;;;6.71;68.83;99783.66;5104501;28;20055;-81
2023/11/13 00:29:36;;;;;;;11.15;5.00;;;6.20;99.90;;;6.71;69.02;99792.41;5102324;28;20044;-81
2023/11/13 00:32:04;;;;;;;8.85;5.32;;;6.20;99.90;;;6.72;68.85;99790.56;5085985;28;20059;-81
2023/11/13 00:34:33;;;;;;;10.57;5.40;;;6.20;99.90;;;6.74;69.23;99787.75;5104001;28;20044;-81
2023/11/13 00:37:02;;;;;;;8.88;5.40;;;6.20;99.90;;;6.76;69.40;99785.69;5104512;28;20044;-81
2023/11/13 00:39:30;;;;;;;9.88;5.65;;;6.30;99.90;;;6.76;69.60;99773.25;5103839;28;20530;-81
2023/11/13 00:41:57;;;;;;;12.98;5.57;;;6.30;99.90;;;6.75;69.52;99768.97;5085962;28;20040;-81
2023/11/13 00:44:26;;;;;;;13.45;6.20;;;6.30;99.90;;;6.78;70.11;99767.75;5052952;28;20044;-81
2023/11/13 00:46:55;;;;;;;11.23;5.75;;;6.30;99.90;;;6.79;70.30;99761.44;5103092;28;20048;-82
2023/11/13 00:49:22;;;;;;;9.35;5.32;;;6.30;99.90;;;6.80;70.44;99752.47;5103326;28;20059;-81
2023/11/13 00:51:50;;;;;;;9.93;5.65;;;6.30;99.90;;;6.81;70.65;99746.16;5085085;28;20044;-81
2023/11/13 00:54:18;;;;;;;12.68;5.75;;;6.30;99.90;;;6.82;70.87;99739.81;5102074;28;20623;-81
2023/11/13 00:56:46;;;;;;;13.48;5.68;;;6.30;99.90;;;6.84;71.02;99745.75;5085304;28;20048;-81
2023/11/13 00:59:13;;;;;;;10.95;5.78;;;6.40;99.90;;;6.85;71.28;99750.03;5102444;28;20137;-81
2023/11/13 01:01:41;;;;;;;12.73;6.25;;;6.40;99.90;;;6.86;71.26;99743.69;5103893;28;20059;-81
2023/11/13 01:04:10;;;;;;;9.68;5.43;;;6.40;99.90;;;6.85;71.42;99742.88;5101660;28;20068;-81
2023/11/13 01:06:38;;;;;;;12.35;5.15;;;6.60;99.90;;;6.88;71.60;99736.34;5102150;28;20039;-81
2023/11/13 01:09:11;;;;;;;10.15;6.15;;;6.40;99.90;;;6.88;71.50;99731.88;5102549;28;20044;-82
2023/11/13 01:11:39;;;;;;;11.95;6.30;;;6.50;99.90;;;6.92;71.37;99730.44;5118967;28;20044;-82
2023/11/13 01:14:07;;;;;;;12.40;5.75;;;6.50;99.90;;;6.94;71.50;99722.28;5051792;28;20078;-82
2023/11/13 01:16:34;;;;;;;11.93;6.07;;;6.50;99.90;;;6.94;71.66;99714.34;5103072;28;20052;-82
2023/11/13 01:19:02;;;;;;;10.75;5.70;;;6.50;99.90;;;6.96;71.72;99709.63;5103737;28;20052;-81
2023/11/13 01:21:32;;;;;;;9.75;5.75;;;6.50;99.90;;;6.98;71.81;99707.59;5102306;28;20063;-81
2023/11/13 01:24:00;;;;;;;12.00;6.30;;;6.60;99.90;;;7.01;72.25;99709.00;5101510;28;20074;-81
2023/11/13 01:26:30;;;;;;;11.38;6.25;;;6.60;99.90;;;7.02;72.28;99710.63;5102276;28;20044;-81
2023/11/13 01:28:58;;;;;;;11.80;6.10;;;6.60;99.90;;;7.04;72.30;99720.03;5085319;28;20048;-81
2023/11/13 01:31:25;;;;;;;15.82;6.75;;;6.60;99.90;;;7.06;72.48;99717.97;5102532;28;20048;-81
2023/11/13 01:33:53;;;;;;;12.75;6.05;;;6.70;99.90;;;7.08;72.69;99737.16;5085133;28;20115;-81
2023/11/13 01:36:22;;;;;;;11.98;5.97;;;6.70;99.90;;;7.09;73.08;99724.72;5101603;28;20475;-81
2023/11/13 01:38:51;;;;;;;9.60;5.80;;;6.70;99.90;;;7.07;73.02;99726.75;5102261;28;20044;-81
2023/11/13 01:41:19;;;;;;;9.80;5.55;;;6.70;99.90;;;7.07;73.05;99722.25;5101931;28;20495;-81
2023/11/13 01:43:46;;;;;;;9.32;5.78;;;6.70;99.90;;;7.09;73.21;99716.75;5102326;28;20055;-81
2023/11/13 01:46:15;;;;;;;10.15;5.50;;;6.70;99.90;;;7.09;73.50;99706.97;5084410;28;20101;-81
2023/11/13 01:48:42;;;;;;;10.05;4.90;;;6.70;99.90;;;7.12;73.36;99708.38;5084748;28;20079;-81
2023/11/13 01:51:10;;;;;;;8.68;5.15;;;6.80;99.90;;;7.15;73.33;99700.00;5101063;28;20048;-82
2023/11/13 01:53:37;;;;;;;10.80;5.25;;;6.80;99.90;;;7.16;73.49;99683.06;5101374;28;20071;-81
2023/11/13 01:56:07;;;;;;;10.60;5.20;;;6.80;99.90;;;7.16;73.38;99670.63;5101721;28;20122;-81
2023/11/13 01:58:38;;;;;;;9.57;5.03;;;6.80;99.90;;;7.17;73.34;99663.47;5101409;28;20054;-81
2023/11/13 02:01:06;;;;;;;10.77;5.32;;;6.80;99.90;;;7.17;73.37;99669.63;5067860;28;20036;-81
2023/11/13 02:03:37;;;;;;;9.30;5.10;;;6.80;99.90;;;7.18;73.52;99668.59;5084503;28;20550;-82
2023/11/13 02:06:06;;;;;;;10.43;4.85;;;6.80;99.90;;;7.18;73.52;99658.00;5101546;28;20123;-82
2023/11/13 02:08:34;;;;;;;10.20;4.93;;;6.80;99.90;;;7.20;73.52;99665.72;5084691;28;20468;-82
2023/11/13 02:11:06;;;;;;;12.15;5.38;;;6.80;99.90;;;7.21;73.48;99672.66;5101230;28;20503;-82
2023/11/13 02:13:34;;;;;;;11.30;5.78;;;6.80;99.90;;;7.22;73.54;99667.16;5101778;28;20063;-81
2023/11/13 02:16:02;;;;;;;9.43;5.30;;;6.90;99.90;;;7.21;73.37;99673.47;5100958;28;20127;-81
2023/11/13 02:18:35;;;;;;;7.60;4.45;;;6.80;99.90;;;7.19;73.59;99664.09;5102302;28;20044;-81
2023/11/13 02:21:03;;;;;;;9.05;4.97;;;6.80;99.90;;;7.19;73.60;99666.75;5101060;28;20051;-81
2023/11/13 02:23:32;;;;;;;10.15;4.93;;;6.80;99.90;;;7.19;73.69;99670.22;5084777;28;20039;-81
2023/11/13 02:26:05;;;;;;;10.82;5.05;;;6.80;99.90;;;7.20;73.55;99676.34;5084840;28;20040;-81
2023/11/13 02:28:33;;;;;;;7.38;4.90;;;6.80;99.90;;;7.19;73.62;99680.03;5101146;28;20055;-82
2023/11/13 02:31:01;;;;;;;7.63;4.30;;;6.80;99.90;;;7.18;73.62;99663.28;5117757;28;20559;-81
2023/11/13 02:33:33;;;;;;;9.00;4.85;;;6.80;99.90;;;7.18;73.75;99662.47;5084983;28;20423;-81
2023/11/13 02:36:03;;;;;;;10.68;4.50;;;6.80;99.90;;;7.17;73.78;99664.31;5084262;28;20045;-81
2023/11/13 02:38:33;;;;;;;11.18;5.82;;;6.80;99.90;;;7.16;73.59;99660.03;5084904;28;20050;-81
2023/11/13 02:41:01;;;;;;;8.15;4.85;;;6.80;99.90;;;7.18;73.54;99665.94;5102616;28;20071;-81
2023/11/13 02:43:30;;;;;;;9.30;5.22;;;6.80;99.90;;;7.20;73.60;99666.53;5100131;28;20048;-81
2023/11/13 02:46:00;;;;;;;10.35;4.97;;;6.90;99.90;;;7.20;73.88;99660.44;5099516;28;20078;-81
2023/11/13 02:48:28;;;;;;;10.93;5.68;;;6.80;99.90;;;7.19;74.06;99662.28;5083861;28;20048;-81
2023/11/13 02:50:56;;;;;;;8.30;4.88;;;6.80;99.90;;;7.20;73.89;99653.28;5102226;28;20044;-81
2023/11/13 02:53:23;;;;;;;9.40;5.03;;;6.80;99.90;;;7.21;74.18;99651.44;5083777;28;20059;-81
2023/11/13 02:55:52;;;;;;;9.77;5.60;;;6.80;99.90;;;7.20;74.12;99645.31;5100335;28;20097;-81
2023/11/13 02:58:20;;;;;;;10.68;5.28;;;6.80;99.90;;;7.22;74.02;99626.53;5100305;28;20051;-81
2023/11/13 03:00:47;;;;;;;8.57;5.22;;;6.90;99.90;;;7.22;74.31;99627.38;5100453;28;20108;-81
2023/11/13 03:03:14;;;;;;;9.70;5.10;;;6.90;99.90;;;7.23;74.30;99628.19;5100233;28;20036;-81
2023/11/13 03:05:42;;;;;;;11.57;5.63;;;6.90;99.90;;;7.26;74.39;99630.41;5100382;28;20052;-81
2023/11/13 03:08:11;;;;;;;14.73;5.85;;;6.90;99.90;;;7.28;74.43;99632.88;5083547;28;20044;-81
2023/11/13 03:10:39;;;;;;;8.70;5.10;;;6.90;99.90;;;7.28;74.51;99632.88;5101186;28;20510;-81
2023/11/13 03:13:08;;;;;;;10.20;5.53;;;7.00;99.90;;;7.29;74.58;99639.81;5100545;28;20044;-81
2023/11/13 03:15:35;;;;;;;10.38;5.30;;;7.00;99.90;;;7.30;74.49;99628.97;5116984;28;20047;-81
2023/11/13 03:18:03;;;;;;;11.00;5.25;;;7.00;99.90;;;7.28;74.83;99620.44;5101701;28;20040;-81
2023/11/13 03:20:30;;;;;;;11.15;5.93;;;7.00;99.90;;;7.31;74.74;99612.03;5100209;28;20461;-81
2023/11/13 03:22:58;;;;;;;7.95;5.15;;;7.00;99.90;;;7.33;75.03;99620.59;5100132;28;20519;-81
2023/11/13 03:25:25;;;;;;;8.98;5.03;;;7.00;99.90;;;7.34;75.00;99618.75;5100029;28;20449;-81
2023/11/13 03:27:53;;;;;;;11.95;5.32;;;7.20;99.90;;;7.34;75.02;99619.56;5099627;28;20044;-81
2023/11/13 03:30:22;;;;;;;11.23;5.43;;;7.00;99.90;;;7.36;74.98;99616.69;5099625;28;20093;-81
2023/11/13 03:32:49;;;;;;;9.98;5.45;;;7.00;99.90;;;7.35;75.16;99613.22;5101310;28;20040;-81
2023/11/13 03:35:17;;;;;;;12.02;5.07;;;7.00;99.90;;;7.37;75.10;99605.06;5100167;28;20048;-81
2023/11/13 03:37:44;;;;;;;10.20;4.68;;;7.00;99.90;;;7.38;75.28;99617.31;5083350;28;20052;-81
2023/11/13 03:40:13;;;;;;;9.23;5.22;;;7.00;99.90;;;7.38;75.47;99622.63;5099610;28;20040;-81
2023/11/13 03:42:40;;;;;;;7.55;5.00;;;7.00;99.90;;;7.38;75.66;99626.09;5082752;28;20040;-81
2023/11/13 03:45:09;;;;;;;9.68;5.00;;;7.10;99.90;;;7.40;75.66;99625.88;5101714;28;20048;-81
2023/11/13 03:47:39;;;;;;;8.38;4.85;;;7.10;99.90;;;7.35;76.17;99620.38;5099191;28;20040;-81
2023/11/13 03:50:08;;;;;;;10.20;4.93;;;7.00;99.90;;;7.36;76.29;99625.47;5099456;28;20498;-81
2023/11/13 03:52:36;;;;;;;9.20;4.70;;;7.00;99.90;;;7.38;76.19;99635.88;5099379;28;20050;-81
2023/11/13 03:55:03;;;;;;;9.55;4.78;;;7.10;99.90;;;7.39;76.25;99638.31;5100013;28;20048;-81
2023/11/13 03:57:32;;;;;;;9.35;4.75;;;7.10;99.90;;;7.41;76.29;99643.41;5115684;28;20048;-81
2023/11/13 03:59:59;;;;;;;11.40;5.43;;;7.10;99.90;;;7.42;76.31;99635.25;5085904;28;20087;-81
2023/11/13 04:02:27;;;;;;;8.63;4.50;;;7.10;99.90;;;7.44;76.66;99643.81;5103567;28;20097;-81
2023/11/13 04:04:56;;;;;;;13.65;4.80;;;7.20;99.90;;;7.45;76.46;99645.44;5103288;28;20051;-81
2023/11/13 04:07:24;;;;;;;10.85;4.80;;;7.20;99.90;;;7.47;76.58;99634.63;5103528;28;20052;-81
2023/11/13 04:09:51;;;;;;;15.13;4.82;;;7.20;99.90;;;7.49;76.70;99628.06;5085998;28;20068;-81
2023/11/13 04:12:19;;;;;;;8.02;4.50;;;7.20;99.90;;;7.51;76.87;99642.94;5104943;28;20040;-81
2023/11/13 04:14:47;;;;;;;7.10;4.63;;;7.20;99.90;;;7.50;76.85;99639.50;5102591;28;20040;-81
2023/11/13 04:17:16;;;;;;;10.25;5.15;;;7.20;99.90;;;7.52;76.98;99647.25;5085961;28;20075;-81
2023/11/13 04:19:44;;;;;;;7.70;4.50;;;7.20;99.90;;;7.53;77.35;99649.69;5086404;28;20419;-81
2023/11/13 04:22:12;;;;;;;8.85;4.45;;;7.30;99.90;;;7.55;77.44;99642.31;5103166;28;20048;-81
2023/11/13 04:24:40;;;;;;;6.25;4.10;;;7.30;99.90;;;7.57;77.46;99636.81;5102626;28;20040;-81
2023/11/13 04:27:08;;;;;;;7.07;4.38;;;7.30;99.90;;;7.57;77.80;99631.53;5104404;28;20559;-81
2023/11/13 04:29:36;;;;;;;10.80;5.60;;;7.30;99.90;;;7.59;78.04;99648.03;5102397;28;20050;-81
2023/11/13 04:32:04;;;;;;;10.10;4.70;;;7.30;99.90;;;7.59;78.71;99637.41;5085512;28;20044;-81
2023/11/13 04:34:32;;;;;;;9.88;5.10;;;7.40;99.90;;;7.61;79.11;99630.03;5084379;28;20511;-82
2023/11/13 04:36:59;;;;;;;8.15;4.63;;;7.40;99.90;;;7.63;79.06;99626.16;5103393;28;20111;-81
2023/11/13 04:39:28;;;;;;;7.75;5.15;;;7.40;99.90;;;7.66;79.11;99622.25;5102996;28;20056;-81
2023/11/13 04:41:57;;;;;;;15.68;5.43;;;7.50;99.90;;;7.61;80.64;99638.00;5103127;28;20097;-81
2023/11/13 04:44:24;;;;;;;12.13;5.20;;;7.50;99.90;;;7.60;81.65;99631.88;5102761;28;20110;-82
2023/11/13 04:46:52;;;;;;;10.85;5.53;;;7.50;99.90;;;7.62;81.85;99637.81;5103777;28;20075;-82
2023/11/13 04:49:19;;;;;;;11.02;4.93;;;7.50;99.90;;;7.66;81.68;99638.19;5102973;28;20056;-82
2023/11/13 04:51:47;;;;;;;9.70;4.70;;;7.50;99.90;;;7.66;82.28;99620.44;5103862;28;20492;-82
2023/11/13 04:54:14;;;;;;;8.77;5.40;;;7.50;99.90;;;7.68;82.35;99615.72;5103268;28;20135;-82
2023/11/13 04:56:44;;;;;;;8.10;4.65;;;7.50;99.90;;;7.70;82.53;99604.88;5104792;28;20044;-81
2023/11/13 04:59:11;;;;;;;7.78;4.68;;;7.60;99.90;;;7.73;82.48;99599.97;5104327;28;20058;-82
2023/11/13 05:01:39;;;;;;;7.70;4.68;;;7.70;99.90;;;7.73;82.67;99592.00;5120308;28;20510;-83
2023/11/13 05:04:08;;;;;;;9.73;4.70;;;7.60;99.90;;;7.75;82.81;99594.44;5102997;28;20499;-85
2023/11/13 05:06:38;;;;;;;7.45;4.22;;;7.50;99.90;;;7.77;82.85;99575.66;5099413;28;20048;-86
2023/11/13 05:09:07;;;;;;;6.32;4.00;;;7.70;99.90;;;7.76;83.05;99569.56;5096233;28;20131;-85
2023/11/13 05:11:39;;;;;;;9.65;4.72;;;7.60;99.90;;;7.75;83.54;99566.06;5072014;28;20065;-84
2023/11/13 05:14:08;;;;;;;9.30;4.20;;;7.70;99.90;;;7.78;83.83;99551.56;5092280;28;20044;-83
2023/11/13 05:16:35;;;;;;;6.72;4.03;;;7.70;99.90;;;7.82;83.69;99539.47;5108201;28;20469;-83
2023/11/13 05:19:03;;;;;;;10.77;4.10;;;7.70;99.90;;;7.84;83.46;99534.75;5109652;28;20040;-83
2023/11/13 05:21:30;;;;;;;6.38;4.05;;;7.70;99.90;;;7.86;83.70;99524.75;5107555;28;20093;-83
2023/11/13 05:23:58;;;;;;;8.02;4.15;;;7.70;99.90;;;7.86;83.69;99526.59;5106212;28;20545;-83
2023/11/13 05:26:27;;;;;;;7.85;3.97;;;7.80;99.90;;;7.87;84.13;99522.91;5103423;28;20052;-83
2023/11/13 05:28:55;;;;;;;6.68;4.35;;;7.80;99.90;;;7.86;84.35;99514.13;5098391;28;20040;-85
2023/11/13 05:31:24;;;;;;;6.45;3.85;;;7.70;99.90;;;7.84;84.87;99518.03;5094682;28;20093;-86
2023/11/13 05:33:51;;;;;;;7.60;3.58;;;7.80;99.90;;;7.84;85.05;99512.72;5100695;28;20067;-84
2023/11/13 05:36:19;;;;;;;6.80;3.45;;;7.80;99.90;;;7.83;85.50;99514.56;5106661;28;20113;-83
2023/11/13 05:38:47;;;;;;;7.07;4.10;;;7.80;99.90;;;7.82;86.08;99523.56;5104620;28;20074;-85
2023/11/13 05:41:15;;;;;;;6.90;3.97;;;7.80;99.90;;;7.81;86.30;99515.78;5079397;28;20045;-83
2023/11/13 05:43:42;;;;;;;5.38;3.58;;;7.80;99.90;;;7.86;86.17;99515.97;5085453;28;20044;-83
2023/11/13 05:46:10;;;;;;;7.05;3.70;;;7.80;99.90;;;7.91;85.69;99524.09;5083149;28;20104;-83
2023/11/13 05:48:39;;;;;;;5.88;3.70;;;7.90;99.90;;;7.96;85.45;99532.22;5084095;28;20044;-83
2023/11/13 05:51:07;;;;;;;5.15;3.55;;;7.90;99.90;;;8.01;85.09;99543.00;5083221;28;20049;-83
2023/11/13 05:53:34;;;;;;;7.22;4.47;;;7.90;99.90;;;7.99;86.21;99543.22;5083477;28;20067;-83
2023/11/13 05:56:02;;;;;;;7.60;4.43;;;7.90;99.90;;;7.99;86.62;99547.72;5085566;28;20399;-84
2023/11/13 05:58:29;;;;;;;10.73;4.05;;;8.00;99.90;;;8.00;86.75;99544.84;5084868;28;20749;-83
2023/11/13 06:00:58;;;;;;;7.47;4.97;;;8.00;99.90;;;8.03;86.52;99546.25;5086089;28;20040;-83
2023/11/13 06:03:26;;;;;;;8.70;5.00;;;8.00;99.90;;;8.06;86.76;99545.81;5087370;28;20045;-83
2023/11/13 06:05:55;;;;;;;17.00;6.85;;;8.00;99.90;;;8.07;87.58;99546.63;5066496;28;20073;-85
2023/11/13 06:08:22;;;;;;;10.43;7.00;;;8.00;99.90;;;8.07;87.85;99546.63;5074815;28;20072;-85
2023/11/13 06:10:50;;;;;;;12.38;7.10;;;8.00;99.90;;;8.05;88.59;99536.22;5080792;28;20411;-84
2023/11/13 06:13:17;;;;;;;11.00;6.63;;;8.10;99.90;;;8.08;88.75;99540.28;5085694;28;20481;-83
2023/11/13 06:15:47;;;;;;;11.25;6.65;;;8.10;99.90;;;8.11;88.47;99532.72;5085896;28;20048;-83
2023/11/13 06:18:14;;;;;;;9.55;6.25;;;8.10;99.90;;;8.15;87.73;99533.06;5088965;28;20088;-82
2023/11/13 06:20:41;;;;;;;11.40;6.82;;;8.10;99.90;;;8.18;87.55;99522.81;5101360;28;20044;-82
2023/11/13 06:23:10;;;;;;;10.85;7.45;;;8.10;99.90;;;8.21;87.41;99521.59;5105629;28;20032;-82
2023/11/13 06:25:37;;;;;;;16.55;8.57;;;8.20;99.90;;;8.20;88.21;99523.44;5104102;28;20051;-83
2023/11/13 06:28:05;;;;;;;13.43;7.88;;;8.10;99.90;;;8.22;89.36;99520.53;5106269;28;20104;-83
2023/11/13 06:30:33;;;;;;;14.35;8.48;;;8.20;99.90;;;8.21;90.72;99529.56;5105153;28;20044;-82
2023/11/13 06:33:02;;;;;;;17.33;9.15;;;8.20;99.90;;;8.19;91.78;99535.06;5103688;28;20748;-82
2023/11/13 06:35:29;;;;;;;13.55;7.82;;;8.30;99.90;;;8.20;91.80;99518.13;5087651;28;20115;-83
2023/11/13 06:37:58;;;;;;;21.42;9.90;;;8.30;99.90;;;8.20;92.44;99512.81;5105057;28;20089;-83
2023/11/13 06:40:27;;;;;;;17.00;8.48;;;8.30;99.90;;;8.23;92.90;99509.69;5105384;28;20048;-83
2023/11/13 06:42:55;;;;;;;13.45;8.32;;;8.30;99.90;;;8.27;92.79;99510.88;5104929;28;20082;-83
2023/11/13 06:45:22;;;;;;;17.15;8.70;;;8.30;99.90;;;8.27;92.87;99508.22;5103372;28;20051;-83
2023/11/13 06:47:51;;;;;;;22.13;10.57;;;8.30;99.90;;;8.30;93.41;99503.53;5103254;28;20047;-83
2023/11/13 06:50:20;;;;;;;15.73;8.95;;;8.40;99.90;;;8.31;93.74;99505.94;5085402;28;20040;-85
2023/11/13 06:52:47;;;;;;;18.50;9.23;;;8.40;99.90;;;8.32;93.63;99509.41;5104237;28;20048;-83
2023/11/13 06:55:16;;;;;;;19.20;8.95;;;8.40;99.90;;;8.35;93.39;99515.13;5104402;28;20465;-82
2023/11/13 06:57:45;;;;;;;20.13;10.02;;;8.40;99.90;;;8.40;92.98;99514.50;5104697;28;20046;-83
2023/11/13 07:00:16;;;;;;;27.73;12.40;;;8.40;99.90;;;8.41;93.50;99505.47;5105569;28;20048;-83
2023/11/13 07:02:47;;;;;;;31.50;11.45;;;8.40;99.90;;;8.42;93.78;99501.78;5099624;28;20048;-83
2023/11/13 07:05:16;;;;;;;23.23;10.37;;;8.50;99.90;;;8.44;94.44;99497.88;5075276;28;20083;-82
2023/11/13 07:07:43;;;;;;;22.77;10.93;;;8.50;99.90;;;8.47;94.26;99499.28;5085243;28;20278;-83
2023/11/13 07:10:12;;;;;;;21.75;10.00;;;8.50;99.90;;;8.49;94.45;99505.16;5099506;28;20059;-82
2023/11/13 07:12:41;;;;;;;25.60;10.18;;;8.50;99.90;;;8.48;94.63;99498.22;5106267;28;20044;-82
2023/11/13 07:15:11;;;;;;;31.58;11.18;;;8.60;99.90;;;8.51;94.91;99509.25;5067318;28;20047;-83
2023/11/13 07:17:39;;;;;;;22.10;9.75;;;8.60;99.90;;;8.53;95.65;99514.31;5085737;28;20450;-83
2023/11/13 07:20:09;;;;;;;26.70;10.20;;;8.60;99.90;;;8.54;95.73;99508.00;5098348;28;20127;-82
2023/11/13 07:22:38;;;;;;;23.58;10.45;;;8.60;99.90;;;8.57;95.74;99504.06;5105177;28;20040;-83
2023/11/13 07:25:07;;;;;;;28.05;9.82;;;8.70;99.90;;;8.59;96.01;99504.66;5106113;28;20036;-83
2023/11/13 07:27:35;;;;;;;23.20;9.45;;;8.70;99.90;;;8.60;96.39;99501.78;5104500;28;20052;-83
2023/11/13 07:30:02;;;;;;;19.33;8.68;;;8.70;99.90;;;8.63;96.78;99517.28;5105041;28;20044;-83
2023/11/13 07:32:31;;;;;;;26.00;8.88;;;8.70;99.90;;;8.65;96.71;99509.91;5089064;28;20044;-83
2023/11/13 07:34:59;;;;;;;19.48;9.07;;;8.70;99.90;;;8.67;96.64;99502.50;5101112;28;20048;-83
2023/11/13 07:37:26;;;;;;;24.35;10.32;;;8.80;99.90;;;8.70;97.13;99511.91;5111549;28;20587;-83
2023/11/13 07:39:54;;;;;;;21.23;8.88;;;8.80;99.90;;;8.73;97.95;99496.28;5112287;28;20075;-83
2023/11/13 07:42:22;;;;;;;29.73;10.02;;;8.80;99.90;;;8.74;97.90;99503.25;5113712;28;20048;-83
2023/11/13 07:44:50;;;;;;;24.45;8.93;;;8.90;99.90;;;8.76;98.27;99495.84;5097110;28;20036;-82
2023/11/13 07:47:18;;;;;;;22.55;9.50;;;8.90;99.90;;;8.77;98.47;99496.66;5113069;28;20048;-83
2023/11/13 07:49:47;;;;;;;30.25;9.30;;;8.90;99.90;;;8.81;98.94;99491.72;5112357;28;20032;-83
2023/11/13 07:52:15;;;;;;;24.85;9.15;;;9.00;99.90;;;8.83;99.41;99492.31;5113670;28;20053;-83
2023/11/13 07:54:43;;;;;;;20.63;8.75;;;9.00;99.90;;;8.85;99.56;99474.28;5113341;28;20112;-83
2023/11/13 07:57:11;;;;;;;28.15;9.43;;;9.00;99.90;;;8.85;99.63;99466.31;5111883;28;20117;-83
2023/11/13 07:59:38;;;;;;;21.50;8.70;;;9.00;99.90;;;8.87;100.00;99469.56;5093094;28;20040;-83
2023/11/13 08:02:09;;;;;;;19.92;8.10;;;9.00;99.90;;;8.88;100.00;99471.16;5076790;28;20048;-85
2023/11/13 08:04:37;;;;;;;22.90;8.13;;;9.00;99.90;;;8.90;100.00;99458.47;5110392;28;20116;-84
2023/11/13 08:07:08;;;;;;;15.77;7.03;;;9.00;99.90;;;8.92;100.00;99469.69;5107883;28;20051;-83
2023/11/13 08:09:35;;;;;;;22.38;7.80;;;9.00;99.90;;;8.93;100.00;99456.19;5092657;28;20036;-83
2023/11/13 08:12:03;;;;;;;24.88;7.88;;;9.10;99.90;;;8.96;100.00;99462.88;5110100;28;20043;-83
2023/11/13 08:14:30;;;;;;;23.33;7.18;;;9.10;99.90;;;8.97;100.00;99470.63;5109713;28;20036;-83
2023/11/13 08:16:58;;;;;;;20.40;7.25;;;9.10;99.90;;;8.98;100.00;99466.16;5107498;28;20048;-83
2023/11/13 08:19:27;;;;;;;19.15;6.97;;;9.10;99.90;;;9.00;100.00;99458.75;5102091;28;20048;-83
2023/11/13 08:21:54;;;;;;;21.45;6.93;;;9.10;99.90;;;9.01;100.00;99452.38;5070912;28;20079;-83
2023/11/13 08:24:24;;;;;;;20.88;6.45;;;9.10;99.90;;;9.01;100.00;99455.84;5089305;28;20495;-83
2023/11/13 08:26:52;;;;;;;17.27;6.47;;;9.10;99.90;;;9.03;100.00;99451.13;5089122;28;20143;-84
2023/11/13 08:29:21;;;;;;;22.17;6.38;;;9.10;99.90;;;9.06;100.00;99441.06;5077702;28;20473;-84
2023/11/13 08:31:48;;;;;;;18.23;6.45;;;9.20;99.90;;;9.06;100.00;99425.13;5108211;28;20093;-84
2023/11/13 08:34:16;;;;;;;15.43;6.32;;;9.20;99.90;;;9.08;100.00;99431.84;5108068;28;20040;-84
2023/11/13 08:36:45;;;;;;;18.50;6.20;;;9.00;99.90;;;9.09;99.88;99424.66;5125618;28;20054;-84
2023/11/13 08:39:16;;;;;;;20.67;6.30;;;9.20;99.90;;;9.11;99.65;99426.06;5072834;28;20131;-83
2023/11/13 08:41:45;;;;;;;15.45;5.22;;;9.20;99.90;;;9.10;99.71;99427.09;5106856;28;20103;-83
2023/11/13 08:44:13;;;;;;;24.67;6.60;;;9.20;99.90;;;9.12;100.00;99422.34;5108005;28;20059;-83
2023/11/13 08:46:41;;;;;;;14.10;5.32;;;9.20;99.90;;;9.14;99.88;99417.63;5103741;28;20105;-83
2023/11/13 08:49:09;;;;;;;18.48;6.00;;;9.20;99.90;;;9.16;99.47;99420.06;5095108;28;20104;-83
2023/11/13 08:51:39;;;;;;;14.20;5.05;;;9.20;99.90;;;9.16;99.44;99420.06;5105512;28;20105;-83
2023/11/13 08:54:07;;;;;;;12.07;5.18;;;9.20;99.90;;;9.17;98.65;99414.50;5104686;28;20043;-85
2023/11/13 08:56:34;;;;;;;17.42;5.43;;;9.20;99.90;;;9.18;98.23;99416.13;5104151;28;20052;-83
2023/11/13 08:59:03;;;;;;;17.80;5.38;;;9.20;99.90;;;9.19;98.04;99419.59;5102722;28;20042;-83
2023/11/13 09:01:31;;;;;;;13.13;5.00;;;9.20;99.90;;;9.21;98.49;99418.31;5104039;28;20506;-84
2023/11/13 09:04:00;;;;;;;22.33;5.78;;;9.30;99.90;;;9.21;98.44;99420.97;5087036;28;20043;-84
2023/11/13 09:06:31;;;;;;;15.20;4.72;;;9.30;99.90;;;9.23;98.59;99407.47;5104123;28;20052;-84
2023/11/13 09:09:00;;;;;;;13.23;4.70;;;9.30;99.90;;;9.26;98.60;99404.34;5102066;28;20058;-84
2023/11/13 09:11:28;;;;;;;13.23;4.85;;;9.30;99.90;;;9.25;98.90;99402.72;5104289;28;20079;-84
2023/11/13 09:13:56;;;;;;;20.58;4.85;;;9.30;99.90;;;9.28;98.96;99391.63;5104153;28;20503;-84
2023/11/13 09:16:25;;;;;;;18.33;5.22;;;9.40;99.90;;;9.29;99.66;99398.56;5103241;28;20058;-84
2023/11/13 09:18:54;;;;;;;17.13;4.55;;;9.40;99.90;;;9.29;99.27;99399.38;5085140;28;20062;-84
2023/11/13 09:21:23;;;;;;;16.55;4.60;;;9.40;99.90;;;9.31;99.02;99382.38;5098761;28;20048;-84
2023/11/13 09:23:51;;;;;;;12.23;4.32;;;9.40;99.90;;;9.34;98.93;99380.06;5081645;28;20045;-84
2023/11/13 09:26:18;;;;;;;12.77;3.90;;;9.40;99.90;;;9.36;98.75;99371.84;5082780;28;20181;-84
2023/11/13 09:28:45;;;;;;;13.73;4.00;;;9.40;99.90;;;9.35;99.28;99378.22;5084805;28;20109;-83
2023/11/13 09:31:13;;;;;;;12.57;4.00;;;9.40;99.90;;;9.35;98.59;99365.72;5103045;28;20421;-83
2023/11/13 09:33:45;;;;;;;13.45;3.63;;;9.40;99.90;;;9.37;99.55;99370.78;5103268;28;20048;-83
2023/11/13 09:36:13;;;;;;;14.30;4.57;;;9.50;99.90;;;9.37;100.00;99354.84;5102714;28;20115;-86
2023/11/13 09:38:40;;;;;;;11.25;4.07;;;9.50;99.90;;;9.38;99.96;99353.81;5095073;28;20052;-85
2023/11/13 09:41:08;;;;;;;13.85;3.45;;;9.50;99.90;;;9.38;100.00;99353.81;5095144;28;20592;-86
2023/11/13 09:43:39;;;;;;;12.45;4.20;;;9.50;99.90;;;9.37;100.00;99346.84;5094390;28;20499;-87
2023/11/13 09:46:09;;;;;;;11.77;4.33;;;9.50;99.90;;;9.39;100.00;99350.09;5095991;28;20044;-86
2023/11/13 09:48:46;;;;;;;14.27;4.07;;;9.50;99.90;;;9.40;100.00;99336.56;5083904;28;20052;-85
2023/11/13 09:51:14;;;;;;;9.43;3.65;;;9.60;99.90;;;9.43;100.00;99316.69;5095037;28;20071;-85
2023/11/13 09:53:43;;;;;;;11.90;3.67;;;9.60;99.90;;;9.45;99.89;99309.25;5095444;28;20062;-85
2023/11/13 09:56:15;;;;;;;10.02;3.53;;;9.60;99.90;;;9.48;99.37;99290.19;5085748;28;20507;-85
2023/11/13 09:58:43;;;;;;;7.72;2.67;;;9.50;99.90;;;9.47;99.22;99284.06;5077417;28;21463;-86
2023/11/13 10:01:15;;;;;;;11.90;3.10;;;9.60;99.90;;;9.48;99.14;99275.00;5094342;28;20113;-87
2023/11/13 10:03:43;;;;;;;10.10;2.72;;;9.60;99.90;;;9.49;98.91;99255.34;5095764;28;20046;-87
2023/11/13 10:06:12;;;;;;;8.65;2.30;;;9.60;99.90;;;9.50;98.75;99246.31;5096399;28;20058;-87
2023/11/13 10:08:44;;;;;;;9.05;2.00;;;9.60;99.90;;;9.52;98.55;99238.09;5095093;28;20410;-86
2023/11/13 10:11:12;;;;;;;8.80;2.40;;;9.60;99.90;;;9.52;98.09;99233.59;5096840;28;20056;-87
2023/11/13 10:13:41;;;;;;;8.18;2.10;;;9.60;99.90;;;9.53;97.97;99224.56;5097467;28;20036;-86
2023/11/13 10:16:20;;;;;;;8.50;1.92;;;9.60;99.90;;;9.53;97.69;99223.75;5084779;28;20037;-86
2023/11/13 10:18:49;;;;;;;5.95;1.80;;;9.60;99.90;;;9.56;97.68;99220.59;5082042;28;20098;-85
2023/11/13 10:21:32;;;;;;;7.85;2.05;;;9.60;99.90;;;9.57;97.33;99216.91;5097656;28;20128;-87
2023/11/13 10:24:16;;;;;;;6.43;1.80;;;9.60;99.90;;;9.58;97.02;99205.22;5098903;28;20046;-85
2023/11/13 10:26:48;;;;;;;3.72;1.90;;;9.60;99.90;;;9.58;96.81;99205.22;5098742;28;20097;-84
2023/11/13 10:29:20;;;;;;;5.97;2.05;;;9.60;99.90;;;9.60;96.36;99187.16;5098040;28;20047;-84
2023/11/13 10:31:52;;;;;;;8.98;1.95;;;9.60;99.90;;;9.59;96.36;99177.56;5098449;28;20060;-85
2023/11/13 10:34:21;;;;;;;5.55;1.60;;;9.60;99.90;;;9.60;96.42;99163.19;5097099;28;20111;-84